sensor_id;sensor_type;location;lat;lon;timestamp;pressure;altitude;pressure_sealevel;temperature;humidity
20368;BME280;10343;52.402;9.796;2023-03-19T00:01:04;100618.06;;;20.78;50.05
20368;BME280;10343;52.402;9.796;2023-03-19T00:03:34;100617.53;;;20.59;49.98
20368;BME280;10343;52.402;9.796;2023-03-19T00:06:04;100627.63;;;20.28;50.62
20368;BME280;10343;52.402;9.796;2023-03-19T00:08:34;100623.47;;;20.36;50.51
20368;BME280;10343;52.402;9.796;2023-03-19T00:11:08;100627.31;;;20.32;50.84
20368;BME280;10343;52.402;9.796;2023-03-19T00:13:42;100631.66;;;20.35;50.50
20368;BME280;10343;52.402;9.796;2023-03-19T00:16:11;100630.38;;;19.99;51.89
20368;BME280;10343;52.402;9.796;2023-03-19T00:18:40;100632.81;;;19.30;54.21
20368;BME280;10343;52.402;9.796;2023-03-19T00:21:13;100631.31;;;19.55;53.23
20368;BME280;10343;52.402;9.796;2023-03-19T00:23:43;100628.97;;;19.48;53.27
20368;BME280;10343;52.402;9.796;2023-03-19T00:26:19;100632.00;;;19.13;55.23
20368;BME280;10343;52.402;9.796;2023-03-19T00:28:48;100632.53;;;19.49;53.51
20368;BME280;10343;52.402;9.796;2023-03-19T00:31:18;100633.03;;;20.13;51.79
20368;BME280;10343;52.402;9.796;2023-03-19T00:33:47;100636.81;;;19.96;51.75
20368;BME280;10343;52.402;9.796;2023-03-19T00:36:17;100638.78;;;19.49;53.62
20368;BME280;10343;52.402;9.796;2023-03-19T00:38:48;100642.06;;;19.83;52.21
20368;BME280;10343;52.402;9.796;2023-03-19T00:41:19;100640.53;;;19.50;53.05
20368;BME280;10343;52.402;9.796;2023-03-19T00:43:51;100641.81;;;19.29;53.87
20368;BME280;10343;52.402;9.796;2023-03-19T00:46:21;100634.75;;;19.42;53.68
20368;BME280;10343;52.402;9.796;2023-03-19T00:48:54;100638.63;;;19.22;54.24
20368;BME280;10343;52.402;9.796;2023-03-19T00:51:31;100633.41;;;19.49;53.47
20368;BME280;10343;52.402;9.796;2023-03-19T00:54:11;100629.56;;;19.54;52.90
20368;BME280;10343;52.402;9.796;2023-03-19T00:56:47;100633.13;;;19.09;54.37
20368;BME280;10343;52.402;9.796;2023-03-19T00:59:19;100626.34;;;18.88;55.33
20368;BME280;10343;52.402;9.796;2023-03-19T01:01:51;100619.19;;;20.05;52.40
20368;BME280;10343;52.402;9.796;2023-03-19T01:04:21;100624.31;;;19.95;52.69
20368;BME280;10343;52.402;9.796;2023-03-19T01:06:50;100635.00;;;18.93;54.79
20368;BME280;10343;52.402;9.796;2023-03-19T01:09:19;100626.22;;;19.05;54.70
20368;BME280;10343;52.402;9.796;2023-03-19T01:11:51;100624.88;;;19.12;54.51
20368;BME280;10343;52.402;9.796;2023-03-19T01:14:20;100626.66;;;18.81;55.44
20368;BME280;10343;52.402;9.796;2023-03-19T01:16:50;100627.84;;;19.52;53.90
20368;BME280;10343;52.402;9.796;2023-03-19T01:19:20;100637.38;;;19.13;54.19
20368;BME280;10343;52.402;9.796;2023-03-19T01:21:56;100633.22;;;19.96;52.18
20368;BME280;10343;52.402;9.796;2023-03-19T01:24:30;100630.44;;;20.12;51.96
20368;BME280;10343;52.402;9.796;2023-03-19T01:27:12;100625.16;;;19.96;51.36
20368;BME280;10343;52.402;9.796;2023-03-19T01:29:43;100627.94;;;19.94;51.14
20368;BME280;10343;52.402;9.796;2023-03-19T01:32:29;100628.81;;;19.66;51.98
20368;BME280;10343;52.402;9.796;2023-03-19T01:35:20;100630.41;;;19.40;52.92
20368;BME280;10343;52.402;9.796;2023-03-19T01:37:55;100628.94;;;19.20;53.21
20368;BME280;10343;52.402;9.796;2023-03-19T01:40:27;100633.25;;;19.81;52.00
20368;BME280;10343;52.402;9.796;2023-03-19T01:43:15;100632.81;;;19.30;52.79
20368;BME280;10343;52.402;9.796;2023-03-19T01:46:26;100621.50;;;19.09;53.67
20368;BME280;10343;52.402;9.796;2023-03-19T01:49:19;100625.44;;;19.62;53.01
20368;BME280;10343;52.402;9.796;2023-03-19T01:51:58;100619.19;;;19.76;52.46
20368;BME280;10343;52.402;9.796;2023-03-19T01:54:33;100614.78;;;19.61;52.20
20368;BME280;10343;52.402;9.796;2023-03-19T01:57:33;100618.81;;;20.11;50.51
20368;BME280;10343;52.402;9.796;2023-03-19T02:00:35;100623.44;;;19.80;51.13
20368;BME280;10343;52.402;9.796;2023-03-19T02:03:05;100625.91;;;19.40;52.19
20368;BME280;10343;52.402;9.796;2023-03-19T02:05:50;100623.69;;;19.02;54.04
20368;BME280;10343;52.402;9.796;2023-03-19T02:08:21;100615.88;;;19.13;54.19
20368;BME280;10343;52.402;9.796;2023-03-19T02:10:51;100628.72;;;18.30;55.88
20368;BME280;10343;52.402;9.796;2023-03-19T02:13:22;100620.59;;;18.94;55.02
20368;BME280;10343;52.402;9.796;2023-03-19T02:15:52;100620.31;;;18.52;56.16
20368;BME280;10343;52.402;9.796;2023-03-19T02:18:21;100622.44;;;17.64;59.34
20368;BME280;10343;52.402;9.796;2023-03-19T02:20:56;100618.34;;;17.74;58.98
20368;BME280;10343;52.402;9.796;2023-03-19T02:23:33;100624.09;;;18.00;58.77
20368;BME280;10343;52.402;9.796;2023-03-19T02:26:14;100623.09;;;18.50;57.05
20368;BME280;10343;52.402;9.796;2023-03-19T02:28:46;100621.00;;;18.56;56.05
20368;BME280;10343;52.402;9.796;2023-03-19T02:31:21;100621.72;;;18.90;55.01
20368;BME280;10343;52.402;9.796;2023-03-19T02:33:57;100621.91;;;19.17;53.95
20368;BME280;10343;52.402;9.796;2023-03-19T02:36:30;100622.97;;;18.68;54.33
20368;BME280;10343;52.402;9.796;2023-03-19T02:39:03;100628.69;;;18.78;54.19
20368;BME280;10343;52.402;9.796;2023-03-19T02:41:36;100626.25;;;18.73;54.48
20368;BME280;10343;52.402;9.796;2023-03-19T02:44:07;100622.00;;;18.69;54.84
20368;BME280;10343;52.402;9.796;2023-03-19T02:46:37;100621.47;;;18.78;54.36
20368;BME280;10343;52.402;9.796;2023-03-19T02:49:06;100626.75;;;18.33;55.24
20368;BME280;10343;52.402;9.796;2023-03-19T02:51:34;100625.50;;;18.55;54.95
20368;BME280;10343;52.402;9.796;2023-03-19T02:54:06;100622.19;;;18.66;53.91
20368;BME280;10343;52.402;9.796;2023-03-19T02:56:38;100617.47;;;18.85;53.91
20368;BME280;10343;52.402;9.796;2023-03-19T02:59:06;100626.00;;;19.39;52.43
20368;BME280;10343;52.402;9.796;2023-03-19T03:01:35;100619.75;;;19.52;52.32
20368;BME280;10343;52.402;9.796;2023-03-19T03:04:03;100630.53;;;19.38;52.15
20368;BME280;10343;52.402;9.796;2023-03-19T03:06:32;100634.81;;;18.96;53.77
20368;BME280;10343;52.402;9.796;2023-03-19T03:09:01;100636.28;;;18.85;53.69
20368;BME280;10343;52.402;9.796;2023-03-19T03:11:29;100627.78;;;19.09;53.06
20368;BME280;10343;52.402;9.796;2023-03-19T03:13:58;100627.25;;;18.87;53.79
20368;BME280;10343;52.402;9.796;2023-03-19T03:16:26;100629.31;;;19.28;53.54
20368;BME280;10343;52.402;9.796;2023-03-19T03:18:55;100633.22;;;18.45;55.02
20368;BME280;10343;52.402;9.796;2023-03-19T03:21:23;100631.88;;;18.84;53.40
20368;BME280;10343;52.402;9.796;2023-03-19T03:23:52;100626.63;;;19.13;52.79
20368;BME280;10343;52.402;9.796;2023-03-19T03:26:20;100631.66;;;18.41;54.38
20368;BME280;10343;52.402;9.796;2023-03-19T03:28:49;100634.66;;;17.36;58.90
20368;BME280;10343;52.402;9.796;2023-03-19T03:31:19;100642.59;;;17.20;59.94
20368;BME280;10343;52.402;9.796;2023-03-19T03:33:48;100641.41;;;17.43;58.97
20368;BME280;10343;52.402;9.796;2023-03-19T03:36:17;100647.25;;;17.34;59.24
20368;BME280;10343;52.402;9.796;2023-03-19T03:38:45;100640.56;;;18.26;56.47
20368;BME280;10343;52.402;9.796;2023-03-19T03:41:14;100635.81;;;18.63;54.88
20368;BME280;10343;52.402;9.796;2023-03-19T03:43:43;100642.63;;;18.84;54.17
20368;BME280;10343;52.402;9.796;2023-03-19T03:46:11;100644.41;;;18.84;53.93
20368;BME280;10343;52.402;9.796;2023-03-19T03:48:41;100644.97;;;18.59;53.88
20368;BME280;10343;52.402;9.796;2023-03-19T03:51:10;100652.59;;;18.19;55.35
20368;BME280;10343;52.402;9.796;2023-03-19T03:53:38;100652.47;;;19.00;53.74
20368;BME280;10343;52.402;9.796;2023-03-19T03:56:07;100640.03;;;19.44;52.07
20368;BME280;10343;52.402;9.796;2023-03-19T03:58:35;100646.09;;;19.17;52.49
20368;BME280;10343;52.402;9.796;2023-03-19T04:01:03;100647.56;;;18.76;52.98
20368;BME280;10343;52.402;9.796;2023-03-19T04:03:32;100636.19;;;19.03;52.48
20368;BME280;10343;52.402;9.796;2023-03-19T04:06:03;100640.19;;;18.80;52.09
20368;BME280;10343;52.402;9.796;2023-03-19T04:08:32;100648.69;;;18.72;53.40
20368;BME280;10343;52.402;9.796;2023-03-19T04:11:05;100649.75;;;18.22;54.74
20368;BME280;10343;52.402;9.796;2023-03-19T04:13:34;100643.28;;;17.59;56.90
20368;BME280;10343;52.402;9.796;2023-03-19T04:16:05;100651.91;;;18.47;55.43
20368;BME280;10343;52.402;9.796;2023-03-19T04:18:33;100637.59;;;19.39;52.11
20368;BME280;10343;52.402;9.796;2023-03-19T04:21:04;100649.22;;;18.79;52.99
20368;BME280;10343;52.402;9.796;2023-03-19T04:23:33;100647.06;;;18.54;52.95
20368;BME280;10343;52.402;9.796;2023-03-19T04:26:02;100649.22;;;18.63;53.19
20368;BME280;10343;52.402;9.796;2023-03-19T04:28:31;100644.97;;;18.91;52.05
20368;BME280;10343;52.402;9.796;2023-03-19T04:30:59;100634.22;;;18.91;52.00
20368;BME280;10343;52.402;9.796;2023-03-19T04:33:31;100642.31;;;18.59;52.87
20368;BME280;10343;52.402;9.796;2023-03-19T04:36:00;100635.56;;;17.86;55.11
20368;BME280;10343;52.402;9.796;2023-03-19T04:38:30;100638.94;;;16.86;60.13
20368;BME280;10343;52.402;9.796;2023-03-19T04:40:58;100633.81;;;17.52;58.52
20368;BME280;10343;52.402;9.796;2023-03-19T04:43:27;100629.13;;;19.16;52.94
20368;BME280;10343;52.402;9.796;2023-03-19T04:45:56;100627.91;;;19.37;51.51
20368;BME280;10343;52.402;9.796;2023-03-19T04:48:25;100634.69;;;19.73;50.30
20368;BME280;10343;52.402;9.796;2023-03-19T04:50:54;100644.81;;;18.62;53.64
20368;BME280;10343;52.402;9.796;2023-03-19T04:53:23;100647.31;;;17.32;57.71
20368;BME280;10343;52.402;9.796;2023-03-19T04:55:53;100655.47;;;17.13;58.70
20368;BME280;10343;52.402;9.796;2023-03-19T04:58:22;100647.97;;;17.03;59.10
20368;BME280;10343;52.402;9.796;2023-03-19T05:00:57;100646.78;;;17.26;58.87
20368;BME280;10343;52.402;9.796;2023-03-19T05:03:45;100643.72;;;17.16;59.32
20368;BME280;10343;52.402;9.796;2023-03-19T05:06:14;100646.28;;;17.53;58.02
20368;BME280;10343;52.402;9.796;2023-03-19T05:08:45;100648.94;;;17.70;56.99
20368;BME280;10343;52.402;9.796;2023-03-19T05:11:18;100643.59;;;17.70;57.02
20368;BME280;10343;52.402;9.796;2023-03-19T05:13:58;100651.06;;;17.12;58.77
20368;BME280;10343;52.402;9.796;2023-03-19T05:16:33;100647.97;;;17.38;58.53
20368;BME280;10343;52.402;9.796;2023-03-19T05:19:03;100636.78;;;17.63;57.46
20368;BME280;10343;52.402;9.796;2023-03-19T05:21:31;100648.69;;;18.08;55.78
20368;BME280;10343;52.402;9.796;2023-03-19T05:24:00;100646.44;;;18.16;55.50
20368;BME280;10343;52.402;9.796;2023-03-19T05:26:34;100650.97;;;18.16;55.36
20368;BME280;10343;52.402;9.796;2023-03-19T05:29:20;100648.16;;;18.02;55.75
20368;BME280;10343;52.402;9.796;2023-03-19T05:32:02;100658.03;;;18.01;55.90
20368;BME280;10343;52.402;9.796;2023-03-19T05:34:31;100654.41;;;18.02;55.85
20368;BME280;10343;52.402;9.796;2023-03-19T05:37:00;100658.53;;;17.92;55.90
20368;BME280;10343;52.402;9.796;2023-03-19T05:39:29;100656.28;;;18.00;55.68
20368;BME280;10343;52.402;9.796;2023-03-19T05:42:05;100654.78;;;18.28;55.02
20368;BME280;10343;52.402;9.796;2023-03-19T05:44:33;100658.59;;;18.40;54.49
20368;BME280;10343;52.402;9.796;2023-03-19T05:47:24;100659.34;;;18.58;53.77
20368;BME280;10343;52.402;9.796;2023-03-19T05:49:56;100645.91;;;18.74;53.59
20368;BME280;10343;52.402;9.796;2023-03-19T05:52:25;100651.44;;;18.87;52.99
20368;BME280;10343;52.402;9.796;2023-03-19T05:54:56;100647.56;;;18.76;52.95
20368;BME280;10343;52.402;9.796;2023-03-19T05:57:38;100653.13;;;19.20;51.96
20368;BME280;10343;52.402;9.796;2023-03-19T06:00:18;100646.16;;;19.31;51.68
20368;BME280;10343;52.402;9.796;2023-03-19T06:02:47;100653.22;;;19.32;51.46
20368;BME280;10343;52.402;9.796;2023-03-19T06:05:43;100659.69;;;19.44;51.26
20368;BME280;10343;52.402;9.796;2023-03-19T06:08:23;100655.50;;;19.55;50.89
20368;BME280;10343;52.402;9.796;2023-03-19T06:11:13;100658.75;;;19.45;50.96
20368;BME280;10343;52.402;9.796;2023-03-19T06:13:45;100665.81;;;19.32;51.26
20368;BME280;10343;52.402;9.796;2023-03-19T06:16:16;100673.03;;;19.01;52.12
20368;BME280;10343;52.402;9.796;2023-03-19T06:18:51;100682.66;;;18.57;53.64
20368;BME280;10343;52.402;9.796;2023-03-19T06:21:19;100676.44;;;18.41;54.46
20368;BME280;10343;52.402;9.796;2023-03-19T06:23:49;100686.78;;;17.99;56.00
20368;BME280;10343;52.402;9.796;2023-03-19T06:26:26;100692.69;;;18.54;54.22
20368;BME280;10343;52.402;9.796;2023-03-19T06:28:58;100694.78;;;18.48;54.28
20368;BME280;10343;52.402;9.796;2023-03-19T06:31:26;100689.56;;;18.77;52.87
20368;BME280;10343;52.402;9.796;2023-03-19T06:34:01;100691.91;;;18.67;53.23
20368;BME280;10343;52.402;9.796;2023-03-19T06:36:37;100697.72;;;18.60;53.33
20368;BME280;10343;52.402;9.796;2023-03-19T06:39:08;100703.53;;;18.36;54.74
20368;BME280;10343;52.402;9.796;2023-03-19T06:41:36;100709.66;;;18.38;54.27
20368;BME280;10343;52.402;9.796;2023-03-19T06:44:26;100706.22;;;18.52;53.49
20368;BME280;10343;52.402;9.796;2023-03-19T06:46:54;100691.00;;;19.45;51.11
20368;BME280;10343;52.402;9.796;2023-03-19T06:49:23;100685.09;;;20.41;48.55
20368;BME280;10343;52.402;9.796;2023-03-19T06:51:51;100693.00;;;20.01;49.20
20368;BME280;10343;52.402;9.796;2023-03-19T06:54:19;100690.50;;;20.12;48.48
20368;BME280;10343;52.402;9.796;2023-03-19T06:56:47;100695.47;;;20.33;47.84
20368;BME280;10343;52.402;9.796;2023-03-19T06:59:17;100691.25;;;20.29;47.95
20368;BME280;10343;52.402;9.796;2023-03-19T07:01:46;100699.34;;;20.14;48.13
20368;BME280;10343;52.402;9.796;2023-03-19T07:04:14;100703.38;;;20.36;47.87
20368;BME280;10343;52.402;9.796;2023-03-19T07:06:43;100711.56;;;20.34;47.60
20368;BME280;10343;52.402;9.796;2023-03-19T07:09:11;100710.31;;;19.82;48.37
20368;BME280;10343;52.402;9.796;2023-03-19T07:11:39;100716.63;;;19.96;48.40
20368;BME280;10343;52.402;9.796;2023-03-19T07:14:10;100713.28;;;20.35;47.88
20368;BME280;10343;52.402;9.796;2023-03-19T07:16:39;100715.88;;;20.08;48.20
20368;BME280;10343;52.402;9.796;2023-03-19T07:19:08;100722.97;;;19.80;48.63
20368;BME280;10343;52.402;9.796;2023-03-19T07:21:37;100724.94;;;20.36;47.88
20368;BME280;10343;52.402;9.796;2023-03-19T07:24:05;100720.25;;;20.67;47.17
20368;BME280;10343;52.402;9.796;2023-03-19T07:26:33;100728.00;;;20.01;48.27
20368;BME280;10343;52.402;9.796;2023-03-19T07:29:01;100733.00;;;19.32;49.91
20368;BME280;10343;52.402;9.796;2023-03-19T07:31:29;100725.25;;;19.72;49.03
20368;BME280;10343;52.402;9.796;2023-03-19T07:33:58;100733.19;;;20.04;48.52
20368;BME280;10343;52.402;9.796;2023-03-19T07:36:28;100738.00;;;20.28;47.65
20368;BME280;10343;52.402;9.796;2023-03-19T07:38:57;100742.19;;;19.44;49.07
20368;BME280;10343;52.402;9.796;2023-03-19T07:41:25;100740.94;;;19.49;49.61
20368;BME280;10343;52.402;9.796;2023-03-19T07:43:53;100749.25;;;19.30;50.19
20368;BME280;10343;52.402;9.796;2023-03-19T07:46:22;100743.09;;;19.59;49.67
20368;BME280;10343;52.402;9.796;2023-03-19T07:48:51;100746.53;;;19.91;48.90
20368;BME280;10343;52.402;9.796;2023-03-19T07:51:21;100752.22;;;19.26;50.11
20368;BME280;10343;52.402;9.796;2023-03-19T07:53:51;100746.75;;;20.17;48.28
20368;BME280;10343;52.402;9.796;2023-03-19T07:56:19;100746.84;;;20.15;48.22
20368;BME280;10343;52.402;9.796;2023-03-19T07:58:47;100748.09;;;19.79;48.87
20368;BME280;10343;52.402;9.796;2023-03-19T08:01:15;100743.75;;;19.93;48.92
20368;BME280;10343;52.402;9.796;2023-03-19T08:03:44;100751.84;;;20.36;47.27
20368;BME280;10343;52.402;9.796;2023-03-19T08:06:14;100748.34;;;20.63;47.42
20368;BME280;10343;52.402;9.796;2023-03-19T08:08:43;100738.38;;;20.36;47.45
20368;BME280;10343;52.402;9.796;2023-03-19T08:11:13;100749.88;;;19.80;48.29
20368;BME280;10343;52.402;9.796;2023-03-19T08:13:42;100743.00;;;20.05;47.40
20368;BME280;10343;52.402;9.796;2023-03-19T08:16:10;100743.00;;;19.91;48.14
20368;BME280;10343;52.402;9.796;2023-03-19T08:18:39;100741.34;;;19.88;47.99
20368;BME280;10343;52.402;9.796;2023-03-19T08:21:07;100740.47;;;20.16;47.23
20368;BME280;10343;52.402;9.796;2023-03-19T08:23:35;100755.88;;;20.72;46.34
20368;BME280;10343;52.402;9.796;2023-03-19T08:26:03;100740.72;;;21.38;44.97
20368;BME280;10343;52.402;9.796;2023-03-19T08:28:33;100757.16;;;20.94;45.82
20368;BME280;10343;52.402;9.796;2023-03-19T08:31:06;100754.81;;;20.31;47.04
20368;BME280;10343;52.402;9.796;2023-03-19T08:33:34;100766.63;;;19.39;49.10
20368;BME280;10343;52.402;9.796;2023-03-19T08:36:06;100757.00;;;19.81;49.26
20368;BME280;10343;52.402;9.796;2023-03-19T08:38:34;100746.94;;;19.69;49.63
20368;BME280;10343;52.402;9.796;2023-03-19T08:41:03;100748.63;;;19.86;49.66
20368;BME280;10343;52.402;9.796;2023-03-19T08:43:34;100737.88;;;20.15;48.81
20368;BME280;10343;52.402;9.796;2023-03-19T08:46:04;100747.75;;;20.86;47.48
20368;BME280;10343;52.402;9.796;2023-03-19T08:48:32;100753.66;;;20.50;48.09
20368;BME280;10343;52.402;9.796;2023-03-19T08:51:01;100760.47;;;20.12;49.27
20368;BME280;10343;52.402;9.796;2023-03-19T08:53:29;100754.91;;;20.44;48.70
20368;BME280;10343;52.402;9.796;2023-03-19T08:56:00;100752.41;;;20.56;48.60
20368;BME280;10343;52.402;9.796;2023-03-19T08:58:29;100756.44;;;21.32;47.07
20368;BME280;10343;52.402;9.796;2023-03-19T09:01:02;100755.25;;;21.36;46.51
20368;BME280;10343;52.402;9.796;2023-03-19T09:03:31;100763.00;;;20.30;48.37
20368;BME280;10343;52.402;9.796;2023-03-19T09:06:00;100752.06;;;21.16;47.76
20368;BME280;10343;52.402;9.796;2023-03-19T09:08:30;100753.47;;;21.49;46.03
20368;BME280;10343;52.402;9.796;2023-03-19T09:10:58;100750.94;;;22.25;44.19
20368;BME280;10343;52.402;9.796;2023-03-19T09:13:26;100756.19;;;20.95;46.67
20368;BME280;10343;52.402;9.796;2023-03-19T09:15:54;100757.09;;;19.80;48.83
20368;BME280;10343;52.402;9.796;2023-03-19T09:18:24;100763.53;;;20.49;48.46
20368;BME280;10343;52.402;9.796;2023-03-19T09:20:52;100762.97;;;20.59;47.75
20368;BME280;10343;52.402;9.796;2023-03-19T09:23:21;100764.25;;;20.95;47.13
20368;BME280;10343;52.402;9.796;2023-03-19T09:25:49;100752.00;;;20.76;47.89
20368;BME280;10343;52.402;9.796;2023-03-19T09:28:17;100750.28;;;21.57;46.39
20368;BME280;10343;52.402;9.796;2023-03-19T09:30:47;100757.97;;;22.02;45.36
20368;BME280;10343;52.402;9.796;2023-03-19T09:33:17;100753.09;;;22.59;44.01
20368;BME280;10343;52.402;9.796;2023-03-19T09:35:50;100758.28;;;22.49;43.68
20368;BME280;10343;52.402;9.796;2023-03-19T09:38:19;100751.94;;;24.06;41.39
20368;BME280;10343;52.402;9.796;2023-03-19T09:40:51;100757.47;;;23.34;42.22
20368;BME280;10343;52.402;9.796;2023-03-19T09:43:56;100765.59;;;23.34;41.01
20368;BME280;10343;52.402;9.796;2023-03-19T09:46:30;100763.25;;;21.78;44.93
20368;BME280;10343;52.402;9.796;2023-03-19T09:49:05;100766.47;;;22.73;43.26
20368;BME280;10343;52.402;9.796;2023-03-19T09:51:43;100765.59;;;23.69;41.12
20368;BME280;10343;52.402;9.796;2023-03-19T09:54:24;100779.69;;;22.26;42.83
20368;BME280;10343;52.402;9.796;2023-03-19T09:56:54;100771.06;;;23.21;41.76
20368;BME280;10343;52.402;9.796;2023-03-19T09:59:24;100779.19;;;22.84;42.54
20368;BME280;10343;52.402;9.796;2023-03-19T10:01:58;100776.66;;;23.31;41.84
20368;BME280;10343;52.402;9.796;2023-03-19T10:04:42;100762.91;;;24.16;39.90
20368;BME280;10343;52.402;9.796;2023-03-19T10:07:27;100769.53;;;24.23;39.62
20368;BME280;10343;52.402;9.796;2023-03-19T10:10:13;100769.53;;;24.35;39.45
20368;BME280;10343;52.402;9.796;2023-03-19T10:12:52;100779.44;;;23.53;40.57
20368;BME280;10343;52.402;9.796;2023-03-19T10:15:26;100763.88;;;24.72;38.55
20368;BME280;10343;52.402;9.796;2023-03-19T10:17:59;100763.88;;;24.38;39.25
20368;BME280;10343;52.402;9.796;2023-03-19T10:20:46;100775.47;;;24.74;38.08
20368;BME280;10343;52.402;9.796;2023-03-19T10:23:37;100772.97;;;24.93;38.38
20368;BME280;10343;52.402;9.796;2023-03-19T10:26:10;100766.03;;;23.87;39.30
20368;BME280;10343;52.402;9.796;2023-03-19T10:28:41;100770.78;;;24.76;38.02
20368;BME280;10343;52.402;9.796;2023-03-19T10:31:17;100772.00;;;24.38;38.88
20368;BME280;10343;52.402;9.796;2023-03-19T10:33:57;100766.06;;;24.21;38.76
20368;BME280;10343;52.402;9.796;2023-03-19T10:36:32;100768.81;;;24.78;38.13
20368;BME280;10343;52.402;9.796;2023-03-19T10:39:03;100770.16;;;24.27;38.08
20368;BME280;10343;52.402;9.796;2023-03-19T10:41:44;100776.50;;;23.56;38.25
20368;BME280;10343;52.402;9.796;2023-03-19T10:44:24;100783.09;;;23.77;38.59
20368;BME280;10343;52.402;9.796;2023-03-19T10:46:57;100783.88;;;23.54;38.16
20368;BME280;10343;52.402;9.796;2023-03-19T10:49:25;100782.00;;;23.79;37.49
20368;BME280;10343;52.402;9.796;2023-03-19T10:51:56;100782.63;;;23.47;37.67
20368;BME280;10343;52.402;9.796;2023-03-19T10:54:31;100779.88;;;24.07;36.86
20368;BME280;10343;52.402;9.796;2023-03-19T10:56:59;100776.91;;;23.99;36.61
20368;BME280;10343;52.402;9.796;2023-03-19T10:59:32;100775.59;;;24.61;36.21
20368;BME280;10343;52.402;9.796;2023-03-19T11:02:15;100774.09;;;24.23;36.30
20368;BME280;10343;52.402;9.796;2023-03-19T11:04:44;100779.34;;;24.02;36.32
20368;BME280;10343;52.402;9.796;2023-03-19T11:07:18;100782.59;;;23.83;37.11
20368;BME280;10343;52.402;9.796;2023-03-19T11:09:49;100777.63;;;24.01;36.89
20368;BME280;10343;52.402;9.796;2023-03-19T11:12:21;100780.38;;;24.46;35.94
20368;BME280;10343;52.402;9.796;2023-03-19T11:14:51;100769.50;;;24.01;36.52
20368;BME280;10343;52.402;9.796;2023-03-19T11:17:22;100783.09;;;23.77;36.99
20368;BME280;10343;52.402;9.796;2023-03-19T11:19:55;100773.97;;;24.36;35.58
20368;BME280;10343;52.402;9.796;2023-03-19T11:22:26;100777.88;;;24.09;36.06
20368;BME280;10343;52.402;9.796;2023-03-19T11:25:01;100778.88;;;24.19;35.58
20368;BME280;10343;52.402;9.796;2023-03-19T11:27:33;100787.88;;;23.73;36.59
20368;BME280;10343;52.402;9.796;2023-03-19T11:30:11;100788.09;;;22.97;37.40
20368;BME280;10343;52.402;9.796;2023-03-19T11:33:15;100790.44;;;23.74;36.14
20368;BME280;10343;52.402;9.796;2023-03-19T11:35:50;100785.66;;;23.67;36.54
20368;BME280;10343;52.402;9.796;2023-03-19T11:38:31;100782.72;;;23.81;36.05
20368;BME280;10343;52.402;9.796;2023-03-19T11:41:11;100779.28;;;24.26;36.40
20368;BME280;10343;52.402;9.796;2023-03-19T11:43:54;100782.56;;;23.96;36.84
20368;BME280;10343;52.402;9.796;2023-03-19T11:46:41;100777.72;;;23.52;36.76
20368;BME280;10343;52.402;9.796;2023-03-19T11:49:41;100773.59;;;24.06;36.83
20368;BME280;10343;52.402;9.796;2023-03-19T11:52:19;100775.94;;;24.79;35.22
20368;BME280;10343;52.402;9.796;2023-03-19T11:55:01;100779.78;;;25.20;35.51
20368;BME280;10343;52.402;9.796;2023-03-19T11:57:46;100776.22;;;24.65;35.53
20368;BME280;10343;52.402;9.796;2023-03-19T12:00:28;100782.34;;;24.89;35.38
20368;BME280;10343;52.402;9.796;2023-03-19T12:03:32;100779.50;;;25.23;34.85
20368;BME280;10343;52.402;9.796;2023-03-19T12:06:09;100775.56;;;25.27;34.40
20368;BME280;10343;52.402;9.796;2023-03-19T12:08:44;100778.94;;;25.20;34.30
20368;BME280;10343;52.402;9.796;2023-03-19T12:11:22;100775.38;;;25.73;33.70
20368;BME280;10343;52.402;9.796;2023-03-19T12:14:05;100774.72;;;25.81;34.28
20368;BME280;10343;52.402;9.796;2023-03-19T12:16:48;100781.25;;;25.24;34.84
20368;BME280;10343;52.402;9.796;2023-03-19T12:19:43;100782.97;;;24.70;35.48
20368;BME280;10343;52.402;9.796;2023-03-19T12:22:21;100784.63;;;25.49;34.08
20368;BME280;10343;52.402;9.796;2023-03-19T12:25:09;100770.78;;;25.64;33.76
20368;BME280;10343;52.402;9.796;2023-03-19T12:27:46;100774.53;;;25.72;33.47
20368;BME280;10343;52.402;9.796;2023-03-19T12:30:29;100773.94;;;25.69;33.17
20368;BME280;10343;52.402;9.796;2023-03-19T12:33:09;100777.81;;;25.22;34.00
20368;BME280;10343;52.402;9.796;2023-03-19T12:35:39;100774.34;;;25.20;33.63
20368;BME280;10343;52.402;9.796;2023-03-19T12:38:12;100776.63;;;25.69;32.93
20368;BME280;10343;52.402;9.796;2023-03-19T12:40:49;100771.28;;;26.00;32.86
20368;BME280;10343;52.402;9.796;2023-03-19T12:43:23;100762.88;;;25.82;32.85
20368;BME280;10343;52.402;9.796;2023-03-19T12:45:57;100764.47;;;25.31;33.77
20368;BME280;10343;52.402;9.796;2023-03-19T12:48:31;100761.09;;;25.71;32.82
20368;BME280;10343;52.402;9.796;2023-03-19T12:51:06;100765.63;;;26.34;32.61
20368;BME280;10343;52.402;9.796;2023-03-19T12:53:44;100771.28;;;26.52;32.44
20368;BME280;10343;52.402;9.796;2023-03-19T12:56:18;100767.25;;;26.15;32.59
20368;BME280;10343;52.402;9.796;2023-03-19T12:58:54;100771.41;;;26.19;32.86
20368;BME280;10343;52.402;9.796;2023-03-19T13:01:29;100764.22;;;25.66;33.67
20368;BME280;10343;52.402;9.796;2023-03-19T13:04:04;100769.09;;;25.72;33.68
20368;BME280;10343;52.402;9.796;2023-03-19T13:06:37;100758.97;;;25.53;33.81
20368;BME280;10343;52.402;9.796;2023-03-19T13:09:14;100760.94;;;25.93;32.98
20368;BME280;10343;52.402;9.796;2023-03-19T13:11:47;100768.19;;;25.62;33.08
20368;BME280;10343;52.402;9.796;2023-03-19T13:14:21;100774.66;;;23.92;35.28
20368;BME280;10343;52.402;9.796;2023-03-19T13:17:00;100769.28;;;24.04;35.27
20368;BME280;10343;52.402;9.796;2023-03-19T13:19:33;100772.69;;;23.95;35.56
20368;BME280;10343;52.402;9.796;2023-03-19T13:22:09;100775.66;;;23.91;35.44